sensor_id;sensor_type;location;lat;lon;timestamp;pressure;altitude;pressure_sealevel;temperature;humidity
66021;BME280;52789;59.980;30.346;2022-10-16T00:01:59;101676.75;;;10.26;93.83
66021;BME280;52789;59.980;30.346;2022-10-16T00:04:25;101673.41;;;10.23;94.23
66021;BME280;52789;59.980;30.346;2022-10-16T00:06:51;101671.97;;;10.19;93.88
66021;BME280;52789;59.980;30.346;2022-10-16T00:09:16;101666.53;;;10.21;93.73
66021;BME280;52789;59.980;30.346;2022-10-16T00:11:42;101677.03;;;10.22;93.84
66021;BME280;52789;59.980;30.346;2022-10-16T00:14:11;101661.88;;;10.13;93.87
66021;BME280;52789;59.980;30.346;2022-10-16T00:16:38;101665.22;;;10.15;94.26
66021;BME280;52789;59.980;30.346;2022-10-16T00:19:04;101656.53;;;10.13;94.17
66021;BME280;52789;59.980;30.346;2022-10-16T00:21:31;101657.53;;;10.12;94.36
66021;BME280;52789;59.980;30.346;2022-10-16T00:24:15;101668.72;;;10.16;93.99
66021;BME280;52789;59.980;30.346;2022-10-16T00:26:41;101670.69;;;10.14;93.75
66021;BME280;52789;59.980;30.346;2022-10-16T00:29:07;101667.44;;;10.10;94.54
66021;BME280;52789;59.980;30.346;2022-10-16T00:31:34;101663.78;;;10.11;94.40
66021;BME280;52789;59.980;30.346;2022-10-16T00:34:00;101672.19;;;10.07;94.50
66021;BME280;52789;59.980;30.346;2022-10-16T00:36:26;101668.97;;;10.03;94.36
66021;BME280;52789;59.980;30.346;2022-10-16T00:38:53;101666.88;;;9.97;95.08
66021;BME280;52789;59.980;30.346;2022-10-16T00:41:21;101659.84;;;9.96;95.07
66021;BME280;52789;59.980;30.346;2022-10-16T00:43:53;101661.53;;;9.97;94.90
66021;BME280;52789;59.980;30.346;2022-10-16T00:46:27;101658.75;;;9.99;94.81
66021;BME280;52789;59.980;30.346;2022-10-16T00:49:02;101663.50;;;10.05;94.83
66021;BME280;52789;59.980;30.346;2022-10-16T00:51:32;101655.66;;;10.03;94.60
66021;BME280;52789;59.980;30.346;2022-10-16T00:54:00;101653.97;;;10.02;94.60
66021;BME280;52789;59.980;30.346;2022-10-16T00:56:27;101650.06;;;9.97;94.66
66021;BME280;52789;59.980;30.346;2022-10-16T00:58:53;101654.53;;;9.96;94.83
66021;BME280;52789;59.980;30.346;2022-10-16T01:01:18;101634.75;;;9.79;94.70
66021;BME280;52789;59.980;30.346;2022-10-16T01:03:44;101610.34;;;9.65;95.10
66021;BME280;52789;59.980;30.346;2022-10-16T01:11:28;101652.00;;;9.85;95.20
66021;BME280;52789;59.980;30.346;2022-10-16T01:14:01;101648.59;;;9.83;95.19
66021;BME280;52789;59.980;30.346;2022-10-16T01:16:40;101644.25;;;9.82;95.58
66021;BME280;52789;59.980;30.346;2022-10-16T01:19:13;101642.84;;;9.78;95.46
66021;BME280;52789;59.980;30.346;2022-10-16T01:21:43;101651.13;;;9.75;95.53
66021;BME280;52789;59.980;30.346;2022-10-16T01:27:26;101660.06;;;9.74;95.72
66021;BME280;52789;59.980;30.346;2022-10-16T01:29:58;101662.03;;;9.72;95.76
66021;BME280;52789;59.980;30.346;2022-10-16T01:32:47;101657.69;;;9.71;95.85
66021;BME280;52789;59.980;30.346;2022-10-16T01:35:18;101651.38;;;9.72;96.01
66021;BME280;52789;59.980;30.346;2022-10-16T01:37:55;101652.53;;;9.79;95.57
66021;BME280;52789;59.980;30.346;2022-10-16T01:40:26;101655.88;;;9.81;95.53
66021;BME280;52789;59.980;30.346;2022-10-16T01:42:54;101655.38;;;9.87;95.16
66021;BME280;52789;59.980;30.346;2022-10-16T01:45:21;101644.72;;;9.87;95.04
66021;BME280;52789;59.980;30.346;2022-10-16T01:47:49;101647.94;;;9.90;94.77
66021;BME280;52789;59.980;30.346;2022-10-16T01:50:16;101642.50;;;9.92;94.85
66021;BME280;52789;59.980;30.346;2022-10-16T01:52:46;101646.84;;;9.93;95.22
66021;BME280;52789;59.980;30.346;2022-10-16T01:55:15;101637.59;;;9.87;95.05
66021;BME280;52789;59.980;30.346;2022-10-16T01:57:45;101637.13;;;9.82;95.27
66021;BME280;52789;59.980;30.346;2022-10-16T02:00:13;101635.00;;;9.76;95.49
66021;BME280;52789;59.980;30.346;2022-10-16T02:02:45;101650.41;;;9.73;95.71
66021;BME280;52789;59.980;30.346;2022-10-16T02:05:37;101644.66;;;9.68;95.89
66021;BME280;52789;59.980;30.346;2022-10-16T02:08:06;101608.16;;;9.39;96.73
66021;BME280;52789;59.980;30.346;2022-10-16T02:10:32;101643.53;;;9.60;96.75
66021;BME280;52789;59.980;30.346;2022-10-16T02:13:03;101638.47;;;9.57;96.48
66021;BME280;52789;59.980;30.346;2022-10-16T02:15:51;101638.47;;;9.57;96.31
66021;BME280;52789;59.980;30.346;2022-10-16T02:18:16;101639.59;;;9.55;96.78
66021;BME280;52789;59.980;30.346;2022-10-16T02:20:55;101637.59;;;9.47;96.89
66021;BME280;52789;59.980;30.346;2022-10-16T02:23:48;101628.03;;;9.35;97.47
66021;BME280;52789;59.980;30.346;2022-10-16T02:26:21;101634.88;;;9.38;97.37
66021;BME280;52789;59.980;30.346;2022-10-16T02:28:55;101613.97;;;9.23;97.17
66021;BME280;52789;59.980;30.346;2022-10-16T02:31:26;101611.44;;;9.22;97.38
66021;BME280;52789;59.980;30.346;2022-10-16T02:33:54;101617.47;;;9.24;97.17
66021;BME280;52789;59.980;30.346;2022-10-16T02:36:23;101586.03;;;8.98;97.46
66021;BME280;52789;59.980;30.346;2022-10-16T02:38:50;101621.22;;;9.21;97.13
66021;BME280;52789;59.980;30.346;2022-10-16T02:41:16;101618.44;;;9.23;97.60
66021;BME280;52789;59.980;30.346;2022-10-16T02:43:42;101616.06;;;9.20;97.40
66021;BME280;52789;59.980;30.346;2022-10-16T02:46:07;101610.31;;;9.15;98.05
66021;BME280;52789;59.980;30.346;2022-10-16T02:48:33;101617.56;;;9.13;97.67
66021;BME280;52789;59.980;30.346;2022-10-16T02:50:58;101618.09;;;9.07;98.11
66021;BME280;52789;59.980;30.346;2022-10-16T02:53:24;101615.25;;;8.98;98.93
66021;BME280;52789;59.980;30.346;2022-10-16T02:55:49;101611.63;;;8.99;98.94
66021;BME280;52789;59.980;30.346;2022-10-16T02:58:15;101621.16;;;9.02;98.51
66021;BME280;52789;59.980;30.346;2022-10-16T03:00:40;101614.59;;;9.06;98.59
66021;BME280;52789;59.980;30.346;2022-10-16T03:03:07;101603.56;;;9.11;98.77
66021;BME280;52789;59.980;30.346;2022-10-16T03:05:32;101604.72;;;9.18;98.26
66021;BME280;52789;59.980;30.346;2022-10-16T03:07:58;101604.19;;;9.24;98.22
66021;BME280;52789;59.980;30.346;2022-10-16T03:10:25;101606.19;;;9.31;97.56
66021;BME280;52789;59.980;30.346;2022-10-16T03:12:51;101601.72;;;9.32;96.89
66021;BME280;52789;59.980;30.346;2022-10-16T03:15:16;101583.03;;;9.22;97.36
66021;BME280;52789;59.980;30.346;2022-10-16T03:17:42;101600.03;;;9.31;97.30
66021;BME280;52789;59.980;30.346;2022-10-16T03:20:08;101607.31;;;9.29;97.13
66021;BME280;52789;59.980;30.346;2022-10-16T03:22:34;101602.00;;;9.29;97.02
66021;BME280;52789;59.980;30.346;2022-10-16T03:25:00;101604.66;;;9.29;97.31
66021;BME280;52789;59.980;30.346;2022-10-16T03:27:26;101585.19;;;9.28;97.46
66021;BME280;52789;59.980;30.346;2022-10-16T03:29:51;101600.88;;;9.31;97.06
66021;BME280;52789;59.980;30.346;2022-10-16T03:32:17;101603.81;;;9.28;97.11
66021;BME280;52789;59.980;30.346;2022-10-16T03:34:46;101584.00;;;9.12;97.42
66021;BME280;52789;59.980;30.346;2022-10-16T03:37:12;101600.09;;;9.20;97.83
66021;BME280;52789;59.980;30.346;2022-10-16T03:39:37;101594.09;;;9.18;97.94
66021;BME280;52789;59.980;30.346;2022-10-16T03:42:03;101604.59;;;9.19;97.83
66021;BME280;52789;59.980;30.346;2022-10-16T03:44:48;101605.03;;;9.24;98.03
66021;BME280;52789;59.980;30.346;2022-10-16T03:47:36;101594.66;;;9.21;97.78
66021;BME280;52789;59.980;30.346;2022-10-16T03:50:10;101556.81;;;8.98;97.50
66021;BME280;52789;59.980;30.346;2022-10-16T03:52:54;101554.78;;;8.91;97.74
66021;BME280;52789;59.980;30.346;2022-10-16T03:55:50;101569.63;;;8.93;97.85
66021;BME280;52789;59.980;30.346;2022-10-16T04:04:53;101596.91;;;8.95;98.79
66021;BME280;52789;59.980;30.346;2022-10-16T04:07:19;101591.41;;;8.87;98.47
66021;BME280;52789;59.980;30.346;2022-10-16T04:09:49;101596.28;;;8.82;98.97
66021;BME280;52789;59.980;30.346;2022-10-16T04:12:14;101584.91;;;8.71;99.41
66021;BME280;52789;59.980;30.346;2022-10-16T04:14:40;101574.72;;;8.55;99.38
66021;BME280;52789;59.980;30.346;2022-10-16T04:17:09;101599.38;;;8.66;100.00
66021;BME280;52789;59.980;30.346;2022-10-16T04:19:35;101565.41;;;8.40;100.00
66021;BME280;52789;59.980;30.346;2022-10-16T04:22:00;101571.88;;;8.47;100.00
66021;BME280;52789;59.980;30.346;2022-10-16T04:24:26;101547.56;;;8.30;100.00
66021;BME280;52789;59.980;30.346;2022-10-16T04:26:57;101561.78;;;8.41;100.00
66021;BME280;52789;59.980;30.346;2022-10-16T04:29:26;101545.16;;;8.27;100.00
66021;BME280;52789;59.980;30.346;2022-10-16T04:32:16;101565.91;;;8.33;100.00
66021;BME280;52789;59.980;30.346;2022-10-16T04:35:03;101529.09;;;8.08;100.00
66021;BME280;52789;59.980;30.346;2022-10-16T04:37:29;101569.44;;;8.23;100.00
66021;BME280;52789;59.980;30.346;2022-10-16T04:40:01;101556.56;;;8.18;100.00
66021;BME280;52789;59.980;30.346;2022-10-16T04:42:29;101574.88;;;8.21;100.00
66021;BME280;52789;59.980;30.346;2022-10-16T04:44:55;101555.63;;;8.08;100.00
66021;BME280;52789;59.980;30.346;2022-10-16T04:47:21;101579.91;;;8.24;100.00
66021;BME280;52789;59.980;30.346;2022-10-16T04:49:55;101565.75;;;8.14;100.00
66021;BME280;52789;59.980;30.346;2022-10-16T04:52:24;101557.28;;;8.09;100.00
66021;BME280;52789;59.980;30.346;2022-10-16T04:54:51;101546.34;;;8.02;100.00
66021;BME280;52789;59.980;30.346;2022-10-16T04:57:23;101547.66;;;8.08;100.00
66021;BME280;52789;59.980;30.346;2022-10-16T05:00:03;101521.50;;;8.03;100.00
66021;BME280;52789;59.980;30.346;2022-10-16T05:02:38;101529.31;;;8.16;100.00
66021;BME280;52789;59.980;30.346;2022-10-16T05:05:23;101502.31;;;8.11;100.00
66021;BME280;52789;59.980;30.346;2022-10-16T05:11:57;101561.13;;;8.69;100.00
66021;BME280;52789;59.980;30.346;2022-10-16T05:15:14;101522.69;;;8.43;99.55
66021;BME280;52789;59.980;30.346;2022-10-16T05:22:24;101549.72;;;8.36;100.00
66021;BME280;52789;59.980;30.346;2022-10-16T05:24:43;101526.91;;;8.13;99.92
66021;BME280;52789;59.980;30.346;2022-10-16T05:27:10;101563.34;;;8.32;100.00
66021;BME280;52789;59.980;30.346;2022-10-16T05:29:36;101567.31;;;8.37;100.00
66021;BME280;52789;59.980;30.346;2022-10-16T05:32:01;101555.63;;;8.40;100.00
66021;BME280;52789;59.980;30.346;2022-10-16T05:34:36;101534.06;;;8.33;100.00
66021;BME280;52789;59.980;30.346;2022-10-16T05:37:01;101547.69;;;8.40;99.90
66021;BME280;52789;59.980;30.346;2022-10-16T05:39:29;101547.53;;;8.42;99.78
66021;BME280;52789;59.980;30.346;2022-10-16T05:41:55;101551.81;;;8.54;99.48
66021;BME280;52789;59.980;30.346;2022-10-16T05:44:20;101549.06;;;8.65;99.63
66021;BME280;52789;59.980;30.346;2022-10-16T05:46:46;101551.41;;;8.79;98.61
66021;BME280;52789;59.980;30.346;2022-10-16T05:49:12;101544.56;;;8.86;97.58
66021;BME280;52789;59.980;30.346;2022-10-16T05:51:38;101548.38;;;8.93;96.94
66021;BME280;52789;59.980;30.346;2022-10-16T05:54:03;101538.28;;;8.87;96.87
66021;BME280;52789;59.980;30.346;2022-10-16T05:56:29;101533.69;;;8.89;96.84
66021;BME280;52789;59.980;30.346;2022-10-16T05:58:54;101531.28;;;8.86;96.98
66021;BME280;52789;59.980;30.346;2022-10-16T06:01:20;101542.91;;;8.85;96.13
66021;BME280;52789;59.980;30.346;2022-10-16T06:03:58;101506.56;;;8.65;96.77
66021;BME280;52789;59.980;30.346;2022-10-16T06:06:27;101535.81;;;8.95;96.81
66021;BME280;52789;59.980;30.346;2022-10-16T06:08:55;101525.66;;;9.00;95.95
66021;BME280;52789;59.980;30.346;2022-10-16T06:11:23;101544.84;;;9.14;95.42
66021;BME280;52789;59.980;30.346;2022-10-16T06:13:50;101546.09;;;9.10;95.30
66021;BME280;52789;59.980;30.346;2022-10-16T06:16:16;101554.91;;;9.10;95.86
66021;BME280;52789;59.980;30.346;2022-10-16T06:18:42;101559.09;;;9.13;95.55
66021;BME280;52789;59.980;30.346;2022-10-16T06:21:10;101562.19;;;9.18;95.19
66021;BME280;52789;59.980;30.346;2022-10-16T06:23:36;101540.78;;;9.10;95.41
66021;BME280;52789;59.980;30.346;2022-10-16T06:26:06;101542.72;;;9.08;95.46
66021;BME280;52789;59.980;30.346;2022-10-16T06:28:31;101534.63;;;9.09;95.82
66021;BME280;52789;59.980;30.346;2022-10-16T06:31:02;101539.53;;;9.14;95.63
66021;BME280;52789;59.980;30.346;2022-10-16T06:33:28;101538.41;;;9.16;95.38
66021;BME280;52789;59.980;30.346;2022-10-16T06:35:59;101536.31;;;9.20;95.05
66021;BME280;52789;59.980;30.346;2022-10-16T06:38:24;101507.03;;;9.00;95.08
66021;BME280;52789;59.980;30.346;2022-10-16T06:40:50;101506.19;;;9.00;96.01
66021;BME280;52789;59.980;30.346;2022-10-16T06:43:15;101517.25;;;9.05;95.86
66021;BME280;52789;59.980;30.346;2022-10-16T06:45:41;101525.25;;;9.15;94.94
66021;BME280;52789;59.980;30.346;2022-10-16T06:48:07;101516.84;;;9.10;95.15
66021;BME280;52789;59.980;30.346;2022-10-16T06:50:32;101539.66;;;9.12;95.66
66021;BME280;52789;59.980;30.346;2022-10-16T06:52:58;101521.59;;;9.06;95.63
66021;BME280;52789;59.980;30.346;2022-10-16T06:55:23;101527.22;;;9.13;95.92
66021;BME280;52789;59.980;30.346;2022-10-16T06:57:49;101528.88;;;9.14;95.46
66021;BME280;52789;59.980;30.346;2022-10-16T07:00:15;101520.38;;;9.20;95.40
66021;BME280;52789;59.980;30.346;2022-10-16T07:02:40;101525.81;;;9.18;95.12
66021;BME280;52789;59.980;30.346;2022-10-16T07:05:06;101518.69;;;9.19;95.32
66021;BME280;52789;59.980;30.346;2022-10-16T07:07:35;101508.06;;;9.19;95.48
66021;BME280;52789;59.980;30.346;2022-10-16T07:10:01;101498.41;;;9.18;95.15
66021;BME280;52789;59.980;30.346;2022-10-16T07:12:26;101495.63;;;9.19;94.43
66021;BME280;52789;59.980;30.346;2022-10-16T07:14:52;101497.28;;;9.11;95.78
66021;BME280;52789;59.980;30.346;2022-10-16T07:17:17;101487.03;;;8.96;95.34
66021;BME280;52789;59.980;30.346;2022-10-16T07:19:43;101501.19;;;9.16;95.37
66021;BME280;52789;59.980;30.346;2022-10-16T07:22:08;101504.84;;;9.15;95.31
66021;BME280;52789;59.980;30.346;2022-10-16T07:24:34;101511.59;;;9.29;95.32
66021;BME280;52789;59.980;30.346;2022-10-16T07:26:59;101509.66;;;9.41;95.36
66021;BME280;52789;59.980;30.346;2022-10-16T07:29:25;101501.69;;;9.50;93.83
66021;BME280;52789;59.980;30.346;2022-10-16T07:31:50;101501.03;;;9.58;93.63
66021;BME280;52789;59.980;30.346;2022-10-16T07:34:17;101507.06;;;9.70;93.18
66021;BME280;52789;59.980;30.346;2022-10-16T07:36:43;101510.56;;;9.80;92.92
66021;BME280;52789;59.980;30.346;2022-10-16T07:39:09;101500.75;;;9.80;91.99
66021;BME280;52789;59.980;30.346;2022-10-16T07:41:34;101520.25;;;9.90;92.20
66021;BME280;52789;59.980;30.346;2022-10-16T07:44:15;101498.22;;;9.69;92.45
66021;BME280;52789;59.980;30.346;2022-10-16T07:46:46;101506.63;;;9.65;92.64
66021;BME280;52789;59.980;30.346;2022-10-16T07:49:11;101504.25;;;9.61;93.31
66021;BME280;52789;59.980;30.346;2022-10-16T07:51:37;101500.47;;;9.54;93.38
66021;BME280;52789;59.980;30.346;2022-10-16T07:54:04;101504.81;;;9.55;93.33
66021;BME280;52789;59.980;30.346;2022-10-16T07:56:30;101495.16;;;9.64;93.45
66021;BME280;52789;59.980;30.346;2022-10-16T07:58:56;101491.50;;;9.75;92.56
66021;BME280;52789;59.980;30.346;2022-10-16T08:01:27;101496.53;;;9.78;92.89
66021;BME280;52789;59.980;30.346;2022-10-16T08:03:56;101495.03;;;9.85;92.70
66021;BME280;52789;59.980;30.346;2022-10-16T08:14:32;101492.50;;;9.93;91.94
66021;BME280;52789;59.980;30.346;2022-10-16T08:24:44;101434.41;;;9.59;91.63
66021;BME280;52789;59.980;30.346;2022-10-16T08:28:09;101507.50;;;9.94;91.96
66021;BME280;52789;59.980;30.346;2022-10-16T08:30:51;101446.16;;;9.67;92.04
66021;BME280;52789;59.980;30.346;2022-10-16T08:39:18;101430.75;;;9.80;90.91
66021;BME280;52789;59.980;30.346;2022-10-16T08:42:13;101472.19;;;10.02;91.17
66021;BME280;52789;59.980;30.346;2022-10-16T08:44:51;101487.59;;;10.17;91.09
66021;BME280;52789;59.980;30.346;2022-10-16T08:50:11;101459.69;;;10.41;89.56
66021;BME280;52789;59.980;30.346;2022-10-16T08:52:56;101460.69;;;10.67;89.41
66021;BME280;52789;59.980;30.346;2022-10-16T08:56:03;101430.69;;;10.65;88.72
66021;BME280;52789;59.980;30.346;2022-10-16T08:58:46;101421.63;;;10.58;88.01
66021;BME280;52789;59.980;30.346;2022-10-16T09:01:41;101463.50;;;10.66;88.44
66021;BME280;52789;59.980;30.346;2022-10-16T09:12:38;101451.28;;;10.36;89.85
66021;BME280;52789;59.980;30.346;2022-10-16T09:25:31;101451.69;;;10.41;90.26
66021;BME280;52789;59.980;30.346;2022-10-16T09:28:01;101459.66;;;10.50;90.25
66021;BME280;52789;59.980;30.346;2022-10-16T09:31:03;101453.59;;;10.58;89.89
66021;BME280;52789;59.980;30.346;2022-10-16T09:33:50;101436.91;;;10.56;89.38
66021;BME280;52789;59.980;30.346;2022-10-16T09:52:41;101394.50;;;10.45;88.34
66021;BME280;52789;59.980;30.346;2022-10-16T09:58:51;101435.56;;;10.79;88.28
66021;BME280;52789;59.980;30.346;2022-10-16T10:14:40;101449.44;;;10.46;88.85
66021;BME280;52789;59.980;30.346;2022-10-16T10:23:57;101456.00;;;10.51;89.59
66021;BME280;52789;59.980;30.346;2022-10-16T10:30:15;101460.06;;;10.55;90.02
66021;BME280;52789;59.980;30.346;2022-10-16T10:36:07;101483.69;;;10.68;90.19
66021;BME280;52789;59.980;30.346;2022-10-16T10:46:50;101447.13;;;10.70;90.23
66021;BME280;52789;59.980;30.346;2022-10-16T11:01:12;101451.53;;;10.52;90.32
66021;BME280;52789;59.980;30.346;2022-10-16T11:06:19;101441.59;;;10.44;90.82
66021;BME280;52789;59.980;30.346;2022-10-16T11:12:29;101439.09;;;10.43;91.14
66021;BME280;52789;59.980;30.346;2022-10-16T11:17:59;101423.56;;;10.29;91.49
66021;BME280;52789;59.980;30.346;2022-10-16T11:20:40;101433.31;;;10.38;91.71
66021;BME280;52789;59.980;30.346;2022-10-16T11:23:09;101436.69;;;10.40;92.00
66021;BME280;52789;59.980;30.346;2022-10-16T11:25:39;101438.25;;;10.33;92.09
66021;BME280;52789;59.980;30.346;2022-10-16T11:31:41;101457.06;;;10.21;93.36
66021;BME280;52789;59.980;30.346;2022-10-16T11:34:44;101434.34;;;10.08;94.02
66021;BME280;52789;59.980;30.346;2022-10-16T11:37:23;101451.72;;;10.12;93.83
66021;BME280;52789;59.980;30.346;2022-10-16T11:39:54;101433.56;;;9.88;94.55
66021;BME280;52789;59.980;30.346;2022-10-16T11:42:27;101464.06;;;10.03;95.05
66021;BME280;52789;59.980;30.346;2022-10-16T11:45:16;101449.22;;;10.01;95.42
66021;BME280;52789;59.980;30.346;2022-10-16T11:48:01;101451.31;;;9.97;95.87
66021;BME280;52789;59.980;30.346;2022-10-16T11:50:40;101462.94;;;9.96;95.98
66021;BME280;52789;59.980;30.346;2022-10-16T11:56:05;101449.25;;;9.91;96.78
66021;BME280;52789;59.980;30.346;2022-10-16T12:01:59;101459.59;;;9.94;96.95
66021;BME280;52789;59.980;30.346;2022-10-16T12:05:06;101447.56;;;9.90;97.25
66021;BME280;52789;59.980;30.346;2022-10-16T12:07:46;101450.91;;;9.92;97.93
66021;BME280;52789;59.980;30.346;2022-10-16T12:10:27;101444.75;;;9.91;97.76
66021;BME280;52789;59.980;30.346;2022-10-16T12:12:54;101449.09;;;9.92;97.98
66021;BME280;52789;59.980;30.346;2022-10-16T12:15:36;101438.19;;;9.86;98.51
66021;BME280;52789;59.980;30.346;2022-10-16T12:18:01;101444.06;;;9.89;98.49
66021;BME280;52789;59.980;30.346;2022-10-16T12:20:28;101447.84;;;9.87;98.28
66021;BME280;52789;59.980;30.346;2022-10-16T12:23:04;101434.69;;;9.85;98.54
66021;BME280;52789;59.980;30.346;2022-10-16T12:25:35;101441.41;;;9.89;98.74
66021;BME280;52789;59.980;30.346;2022-10-16T12:30:42;101439.03;;;9.86;98.42
66021;BME280;52789;59.980;30.346;2022-10-16T12:33:36;101436.34;;;9.96;98.79
66021;BME280;52789;59.980;30.346;2022-10-16T12:36:13;101429.06;;;9.98;98.43
66021;BME280;52789;59.980;30.346;2022-10-16T12:38:49;101414.19;;;10.05;98.18
66021;BME280;52789;59.980;30.346;2022-10-16T12:41:36;101409.16;;;10.02;98.23
66021;BME280;52789;59.980;30.346;2022-10-16T12:44:22;101400.75;;;9.97;98.80
66021;BME280;52789;59.980;30.346;2022-10-16T12:46:48;101404.69;;;9.93;99.12
66021;BME280;52789;59.980;30.346;2022-10-16T12:51:54;101397.16;;;9.88;100.00
66021;BME280;52789;59.980;30.346;2022-10-16T12:54:37;101387.78;;;9.84;100.00
66021;BME280;52789;59.980;30.346;2022-10-16T13:00:04;101398.69;;;9.91;100.00
66021;BME280;52789;59.980;30.346;2022-10-16T13:11:43;101385.53;;;9.80;100.00
66021;BME280;52789;59.980;30.346;2022-10-16T13:19:48;101375.31;;;9.85;100.00
66021;BME280;52789;59.980;30.346;2022-10-16T13:27:42;101373.63;;;9.84;100.00
66021;BME280;52789;59.980;30.346;2022-10-16T13:30:22;101375.31;;;9.85;100.00
66021;BME280;52789;59.980;30.346;2022-10-16T13:32:49;101368.03;;;9.87;100.00
66021;BME280;52789;59.980;30.346;2022-10-16T13:35:26;101363.53;;;9.78;100.00
66021;BME280;52789;59.980;30.346;2022-10-16T13:38:15;101373.19;;;9.79;100.00
66021;BME280;52789;59.980;30.346;2022-10-16T13:43:45;101386.50;;;9.88;100.00
66021;BME280;52789;59.980;30.346;2022-10-16T13:46:20;101384.00;;;9.87;100.00
66021;BME280;52789;59.980;30.346;2022-10-16T13:49:03;101373.34;;;9.87;100.00
66021;BME280;52789;59.980;30.346;2022-10-16T13:51:31;101378.66;;;9.87;100.00
66021;BME280;52789;59.980;30.346;2022-10-16T13:53:57;101378.81;;;9.85;100.00
66021;BME280;52789;59.980;30.346;2022-10-16T13:56:27;101348.16;;;9.72;100.00
66021;BME280;52789;59.980;30.346;2022-10-16T13:59:27;101376.13;;;9.95;100.00
66021;BME280;52789;59.980;30.346;2022-10-16T14:01:54;101361.59;;;9.89;100.00
66021;BME280;52789;59.980;30.346;2022-10-16T14:04:21;101357.69;;;9.84;100.00
66021;BME280;52789;59.980;30.346;2022-10-16T14:06:50;101372.38;;;9.88;100.00
66021;BME280;52789;59.980;30.346;2022-10-16T14:09:25;101368.72;;;9.89;100.00
66021;BME280;52789;59.980;30.346;2022-10-16T14:11:56;101369.16;;;9.84;100.00
66021;BME280;52789;59.980;30.346;2022-10-16T14:14:23;101371.94;;;9.83;100.00
66021;BME280;52789;59.980;30.346;2022-10-16T14:16:50;101366.59;;;9.83;100.00
66021;BME280;52789;59.980;30.346;2022-10-16T14:19:20;101371.94;;;9.83;100.00
66021;BME280;52789;59.980;30.346;2022-10-16T14:21:49;101363.53;;;9.78;100.00
66021;BME280;52789;59.980;30.346;2022-10-16T14:26:55;101371.38;;;9.89;100.00
66021;BME280;52789;59.980;30.346;2022-10-16T14:29:24;101369.72;;;9.88;100.00
66021;BME280;52789;59.980;30.346;2022-10-16T14:31:57;101366.59;;;9.83;100.00
66021;BME280;52789;59.980;30.346;2022-10-16T14:36:51;101373.63;;;9.84;100.00
66021;BME280;52789;59.980;30.346;2022-10-16T14:39:21;101364.66;;;9.75;100.00
66021;BME280;52789;59.980;30.346;2022-10-16T14:41:54;101358.91;;;9.80;100.00
66021;BME280;52789;59.980;30.346;2022-10-16T14:44:29;101370.25;;;9.82;100.00
66021;BME280;52789;59.980;30.346;2022-10-16T14:46:57;101321.88;;;9.59;100.00
66021;BME280;52789;59.980;30.346;2022-10-16T14:49:25;101372.81;;;9.83;100.00
66021;BME280;52789;59.980;30.346;2022-10-16T14:51:50;101355.00;;;9.74;100.00
66021;BME280;52789;59.980;30.346;2022-10-16T14:54:18;101354.88;;;9.76;100.00
66021;BME280;52789;59.980;30.346;2022-10-16T15:01:55;101354.88;;;9.76;100.00
66021;BME280;52789;59.980;30.346;2022-10-16T15:04:21;101367.63;;;9.72;100.00
66021;BME280;52789;59.980;30.346;2022-10-16T15:06:50;101360.47;;;9.73;100.00
66021;BME280;52789;59.980;30.346;2022-10-16T15:09:18;101365.50;;;9.76;100.00
66021;BME280;52789;59.980;30.346;2022-10-16T15:11:43;101368.16;;;9.76;100.00
66021;BME280;52789;59.980;30.346;2022-10-16T15:14:12;101361.16;;;9.75;100.00
66021;BME280;52789;59.980;30.346;2022-10-16T15:16:38;101367.19;;;9.77;100.00
66021;BME280;52789;59.980;30.346;2022-10-16T15:19:04;101362.00;;;9.75;100.00
66021;BME280;52789;59.980;30.346;2022-10-16T15:21:31;101350.13;;;9.70;100.00
66021;BME280;52789;59.980;30.346;2022-10-16T15:23:58;101361.72;;;9.78;100.00
66021;BME280;52789;59.980;30.346;2022-10-16T15:26:25;101360.19;;;9.76;100.00
66021;BME280;52789;59.980;30.346;2022-10-16T15:28:51;101360.88;;;9.78;100.00
66021;BME280;52789;59.980;30.346;2022-10-16T15:31:17;101362.41;;;9.80;100.00
66021;BME280;52789;59.980;30.346;2022-10-16T15:33:43;101357.94;;;9.81;100.00
66021;BME280;52789;59.980;30.346;2022-10-16T15:36:09;101357.69;;;9.84;100.00
66021;BME280;52789;59.980;30.346;2022-10-16T15:38:35;101354.88;;;9.85;100.00
66021;BME280;52789;59.980;30.346;2022-10-16T15:41:01;101357.25;;;9.88;100.00
66021;BME280;52789;59.980;30.346;2022-10-16T15:43:26;101343.41;;;9.85;100.00
66021;BME280;52789;59.980;30.346;2022-10-16T15:46:03;101342.81;;;9.91;100.00
66021;BME280;52789;59.980;30.346;2022-10-16T15:48:30;101352.06;;;9.87;100.00
66021;BME280;52789;59.980;30.346;2022-10-16T15:50:56;101338.34;;;9.82;100.00
66021;BME280;52789;59.980;30.346;2022-10-16T15:53:22;101334.56;;;9.84;100.00
66021;BME280;52789;59.980;30.346;2022-10-16T15:55:48;101343.09;;;9.88;100.00
66021;BME280;52789;59.980;30.346;2022-10-16T15:58:13;101343.78;;;9.90;100.00
66021;BME280;52789;59.980;30.346;2022-10-16T16:00:39;101333.84;;;9.92;100.00
66021;BME280;52789;59.980;30.346;2022-10-16T16:03:04;101324.19;;;9.91;100.00
66021;BME280;52789;59.980;30.346;2022-10-16T16:05:38;101319.00;;;9.89;100.00
66021;BME280;52789;59.980;30.346;2022-10-16T16:08:06;101319.41;;;9.94;100.00
66021;BME280;52789;59.980;30.346;2022-10-16T16:10:31;101317.59;;;9.95;100.00
66021;BME280;52789;59.980;30.346;2022-10-16T16:12:57;101324.28;;;9.99;100.00
66021;BME280;52789;59.980;30.346;2022-10-16T16:15:24;101329.75;;;9.98;100.00
66021;BME280;52789;59.980;30.346;2022-10-16T16:17:49;101318.97;;;9.99;100.00
66021;BME280;52789;59.980;30.346;2022-10-16T16:20:15;101303.31;;;9.96;100.00